createdAt,value
2018-11-29T00:02:47.915Z,23.00
2018-11-29T00:06:02.175Z,23.00
2018-11-29T00:08:59.032Z,23.00
2018-11-29T00:11:55.290Z,22.90
2018-11-29T00:14:51.596Z,22.90
2018-11-29T00:17:50.950Z,22.90
2018-11-29T00:20:47.314Z,22.80
2018-11-29T00:23:43.072Z,22.80
2018-11-29T00:26:39.631Z,22.80
2018-11-29T00:29:35.929Z,22.80
2018-11-29T00:32:32.512Z,22.80
2018-11-29T00:35:30.164Z,22.70
2018-11-29T00:38:26.662Z,22.70
2018-11-29T00:41:23.198Z,22.70
2018-11-29T00:44:19.426Z,22.70
2018-11-29T00:47:15.486Z,22.70
2018-11-29T00:50:12.616Z,22.70
2018-11-29T00:53:09.487Z,22.60
2018-11-29T00:56:06.001Z,22.60
2018-11-29T00:59:04.950Z,22.60
2018-11-29T01:02:07.452Z,22.60
2018-11-29T01:05:03.353Z,22.60
2018-11-29T01:07:59.974Z,22.50
2018-11-29T01:10:56.104Z,22.50
2018-11-29T01:13:52.948Z,22.50
2018-11-29T01:16:49.528Z,22.50
2018-11-29T01:19:46.122Z,22.50
2018-11-29T01:22:42.517Z,22.50
2018-11-29T01:25:38.622Z,22.60
2018-11-29T01:28:34.800Z,22.60
2018-11-29T01:31:31.379Z,22.60
2018-11-29T01:34:27.564Z,22.60
2018-11-29T01:37:24.022Z,22.60
2018-11-29T01:40:21.865Z,22.70
2018-11-29T01:43:21.578Z,22.70
2018-11-29T01:46:18.300Z,22.70
2018-11-29T01:49:14.440Z,22.70
2018-11-29T01:52:10.464Z,22.70
2018-11-29T01:55:06.764Z,22.60
2018-11-29T01:58:02.913Z,22.60
2018-11-29T02:00:59.460Z,22.60
2018-11-29T02:03:59.504Z,22.60
2018-11-29T02:06:56.844Z,22.60
2018-11-29T02:10:14.290Z,22.60
2018-11-29T02:13:10.627Z,22.60
2018-11-29T02:16:07.200Z,22.60
2018-11-29T02:19:03.375Z,22.60
2018-11-29T02:22:03.400Z,22.60
2018-11-29T02:24:57.112Z,22.60
2018-11-29T02:27:56.698Z,22.60
2018-11-29T02:30:53.045Z,22.70
2018-11-29T02:33:51.762Z,22.70
2018-11-29T02:36:48.352Z,22.70
2018-11-29T02:39:44.392Z,22.70
2018-11-29T02:42:41.006Z,22.70
2018-11-29T02:45:37.334Z,22.80
2018-11-29T02:48:34.119Z,22.80
2018-11-29T02:51:30.770Z,22.80
2018-11-29T02:54:27.131Z,22.80
2018-11-29T02:57:23.611Z,22.80
2018-11-29T03:00:27.105Z,22.80
2018-11-29T03:03:23.015Z,22.90
2018-11-29T03:06:19.480Z,22.90
2018-11-29T03:09:16.118Z,22.90
2018-11-29T03:12:13.379Z,22.90
2018-11-29T03:15:11.978Z,23.00
2018-11-29T03:18:08.641Z,23.00
2018-11-29T03:21:05.299Z,23.10
2018-11-29T03:24:01.866Z,23.10
2018-11-29T03:26:57.962Z,23.10
2018-11-29T03:29:54.414Z,23.10
2018-11-29T03:32:50.804Z,23.10
2018-11-29T03:35:48.159Z,23.20
2018-11-29T03:38:44.586Z,23.20
2018-11-29T03:41:41.302Z,23.20
2018-11-29T03:44:37.691Z,23.20
2018-11-29T03:47:34.170Z,23.20
2018-11-29T03:50:30.011Z,23.20
2018-11-29T03:53:26.838Z,23.30
2018-11-29T03:56:23.015Z,23.30
2018-11-29T03:59:19.402Z,23.30
2018-11-29T04:02:15.886Z,23.40
2018-11-29T04:05:12.782Z,23.30
2018-11-29T04:08:09.094Z,23.40
2018-11-29T04:11:05.047Z,23.40
2018-11-29T04:14:01.996Z,23.40
2018-11-29T04:16:58.829Z,23.50
2018-11-29T04:19:54.882Z,23.50
2018-11-29T04:22:51.510Z,23.50
2018-11-29T04:25:47.798Z,23.60
2018-11-29T04:28:44.194Z,23.60
2018-11-29T04:31:41.109Z,23.60
2018-11-29T04:34:37.620Z,23.60
2018-11-29T04:37:34.516Z,23.60
2018-11-29T04:40:30.791Z,23.70
2018-11-29T04:43:28.082Z,23.70
2018-11-29T04:46:47.555Z,23.80
2018-11-29T04:49:44.231Z,23.80
2018-11-29T04:52:41.099Z,23.80
2018-11-29T04:55:37.839Z,23.90
2018-11-29T04:58:34.367Z,23.90
2018-11-29T05:01:30.995Z,24.00
2018-11-29T05:04:30.165Z,24.00
2018-11-29T05:07:27.730Z,24.10
2018-11-29T05:10:25.048Z,24.10
2018-11-29T05:13:22.696Z,24.10
2018-11-29T05:16:23.609Z,24.20
2018-11-29T05:19:18.100Z,24.20
2018-11-29T05:22:19.536Z,24.20
2018-11-29T05:25:16.909Z,24.30
2018-11-29T05:28:18.331Z,24.40
2018-11-29T05:31:15.056Z,24.40
2018-11-29T05:34:13.257Z,24.50
2018-11-29T05:37:10.166Z,24.50
2018-11-29T05:40:11.618Z,24.60
2018-11-29T05:43:08.493Z,24.60
2018-11-29T05:46:06.454Z,24.60
2018-11-29T05:49:02.433Z,24.70
2018-11-29T05:51:58.848Z,24.80
2018-11-29T05:54:58.605Z,24.80
2018-11-29T05:57:57.213Z,24.90
2018-11-29T06:00:54.052Z,25.00
2018-11-29T06:04:00.547Z,25.00
2018-11-29T06:07:04.729Z,25.10
2018-11-29T06:10:08.142Z,25.20
2018-11-29T06:13:05.695Z,25.30
2018-11-29T06:16:03.066Z,25.30
2018-11-29T06:19:05.664Z,25.40
2018-11-29T06:22:03.682Z,25.50
2018-11-29T06:25:02.792Z,25.50
2018-11-29T06:28:01.546Z,25.60
2018-11-29T06:31:04.004Z,25.60
2018-11-29T06:34:00.128Z,25.70
2018-11-29T06:37:22.263Z,25.70
2018-11-29T06:40:17.854Z,25.80
2018-11-29T06:43:16.535Z,25.90
2018-11-29T06:46:17.786Z,26.00
2018-11-29T06:49:15.366Z,26.00
2018-11-29T06:52:11.238Z,26.00
2018-11-29T06:55:08.018Z,26.10
2018-11-29T06:58:03.841Z,26.10
2018-11-29T07:00:59.861Z,26.20
2018-11-29T07:03:59.709Z,26.20
2018-11-29T07:06:53.555Z,26.30
2018-11-29T07:09:54.264Z,26.40
2018-11-29T07:12:50.761Z,26.40
2018-11-29T07:15:48.080Z,26.50
2018-11-29T07:18:44.766Z,26.60
2018-11-29T07:22:04.943Z,26.60
2018-11-29T07:25:00.666Z,26.60
2018-11-29T07:28:02.258Z,26.70
2018-11-29T07:31:03.576Z,26.70
2018-11-29T07:34:03.753Z,26.70
2018-11-29T07:37:17.363Z,26.70
2018-11-29T07:40:29.649Z,26.70
2018-11-29T07:43:26.341Z,26.70
2018-11-29T07:46:36.647Z,26.70
2018-11-29T07:49:32.235Z,26.70
2018-11-29T07:52:30.363Z,26.70
2018-11-29T07:55:39.564Z,26.70
2018-11-29T07:58:32.459Z,26.70
2018-11-29T08:01:31.656Z,26.80
2018-11-29T08:04:31.552Z,26.80
2018-11-29T08:07:29.188Z,26.80
2018-11-29T08:10:33.350Z,26.90
2018-11-29T08:13:40.235Z,26.90
2018-11-29T08:16:38.696Z,27.00
2018-11-29T08:19:45.821Z,27.00
2018-11-29T08:22:36.661Z,27.00
2018-11-29T08:25:36.710Z,27.00
2018-11-29T08:28:33.825Z,27.10
2018-11-29T08:31:30.107Z,27.10
2018-11-29T08:34:26.447Z,27.10
2018-11-29T08:37:23.247Z,27.10
2018-11-29T08:40:21.642Z,27.10
2018-11-29T08:43:18.072Z,27.20
2018-11-29T08:46:14.120Z,27.20
2018-11-29T08:49:10.564Z,27.20
2018-11-29T08:52:06.711Z,27.20
2018-11-29T08:55:04.164Z,27.30
2018-11-29T08:58:06.063Z,27.30
2018-11-29T09:01:03.408Z,27.30
2018-11-29T09:04:01.175Z,27.30
2018-11-29T09:07:04.005Z,27.30
2018-11-29T09:10:01.450Z,27.30
2018-11-29T09:12:59.455Z,27.30
2018-11-29T09:16:04.926Z,27.30
2018-11-29T09:19:10.050Z,27.30
2018-11-29T09:22:28.453Z,27.30
2018-11-29T09:25:40.806Z,27.30
2018-11-29T09:28:50.663Z,27.30
2018-11-29T09:31:49.313Z,27.30
2018-11-29T09:34:47.579Z,27.40
2018-11-29T09:37:47.247Z,27.40
2018-11-29T09:40:44.860Z,27.40
2018-11-29T09:43:45.722Z,27.40
2018-11-29T09:46:50.568Z,27.40
2018-11-29T09:49:46.025Z,27.40
2018-11-29T09:52:44.197Z,27.40
2018-11-29T09:55:42.438Z,27.40
2018-11-29T09:58:40.409Z,27.40
2018-11-29T10:01:38.768Z,27.40
2018-11-29T10:04:37.010Z,27.40
2018-11-29T10:07:35.329Z,27.40
2018-11-29T10:10:33.618Z,27.40
2018-11-29T10:13:34.731Z,27.30
2018-11-29T10:16:34.116Z,27.30
2018-11-29T10:19:31.449Z,27.30
2018-11-29T10:22:28.983Z,27.30
2018-11-29T10:25:29.616Z,27.30
2018-11-29T10:28:28.185Z,27.30
2018-11-29T10:31:27.174Z,27.20
2018-11-29T10:34:24.342Z,27.20
2018-11-29T10:37:22.212Z,27.20
2018-11-29T10:40:23.020Z,27.20
2018-11-29T10:43:24.476Z,27.20
2018-11-29T10:46:28.045Z,27.20
2018-11-29T10:49:25.500Z,27.20
2018-11-29T10:52:25.539Z,27.10
2018-11-29T10:55:26.837Z,27.10
2018-11-29T10:58:25.237Z,27.10
2018-11-29T11:01:36.362Z,27.10
2018-11-29T11:04:35.266Z,27.00
2018-11-29T11:07:33.237Z,27.00
2018-11-29T11:10:33.282Z,27.00
2018-11-29T11:13:34.776Z,26.90
2018-11-29T11:16:29.706Z,26.90
2018-11-29T11:19:29.002Z,26.90
2018-11-29T11:22:28.968Z,26.80
2018-11-29T11:25:28.806Z,26.80
2018-11-29T11:28:28.969Z,26.70
2018-11-29T11:31:31.211Z,26.70
2018-11-29T11:34:34.642Z,26.70
2018-11-29T11:37:35.907Z,26.60
2018-11-29T11:40:33.879Z,26.60
2018-11-29T11:43:33.974Z,26.60
2018-11-29T11:46:31.457Z,26.50
2018-11-29T11:49:28.929Z,26.40
2018-11-29T11:52:25.710Z,26.40
2018-11-29T11:55:29.476Z,26.40
2018-11-29T11:58:19.945Z,26.40
2018-11-29T12:01:16.831Z,26.40
2018-11-29T12:04:14.295Z,26.40
2018-11-29T12:07:16.469Z,26.30
2018-11-29T12:10:16.997Z,26.30
2018-11-29T12:13:17.252Z,26.30
2018-11-29T12:16:15.494Z,26.30
2018-11-29T12:19:13.095Z,26.30
2018-11-29T12:22:12.862Z,26.20
2018-11-29T12:25:13.012Z,26.20
2018-11-29T12:28:10.989Z,26.20
2018-11-29T12:31:08.626Z,26.10
2018-11-29T12:34:05.656Z,26.10
2018-11-29T12:37:03.280Z,26.00
2018-11-29T12:40:01.095Z,26.00
2018-11-29T12:42:59.520Z,26.00
2018-11-29T12:45:57.452Z,26.00
2018-11-29T12:48:54.884Z,25.90
2018-11-29T12:51:52.656Z,25.90
2018-11-29T12:54:49.986Z,25.90
2018-11-29T12:58:04.661Z,25.90
2018-11-29T13:00:47.578Z,25.80
2018-11-29T13:03:45.756Z,25.80
2018-11-29T13:06:44.050Z,25.80
2018-11-29T13:09:44.298Z,25.80
2018-11-29T13:12:42.072Z,25.80
2018-11-29T13:15:40.495Z,25.70
2018-11-29T13:18:38.562Z,25.70
2018-11-29T13:21:35.196Z,25.70
2018-11-29T13:24:31.989Z,25.60
2018-11-29T13:27:28.862Z,25.60
2018-11-29T13:30:27.679Z,25.60
2018-11-29T13:33:25.561Z,25.60
2018-11-29T13:36:27.924Z,25.60
2018-11-29T13:39:24.538Z,25.60
2018-11-29T13:42:22.140Z,25.60
2018-11-29T13:45:19.780Z,25.60
2018-11-29T13:48:18.063Z,25.60
2018-11-29T13:51:15.094Z,25.60
2018-11-29T13:54:14.464Z,25.60
2018-11-29T13:57:11.737Z,25.60
2018-11-29T14:00:09.785Z,25.60
2018-11-29T14:03:09.534Z,25.50
2018-11-29T14:06:07.974Z,25.50
2018-11-29T14:09:09.343Z,25.50
2018-11-29T14:12:06.586Z,25.50
2018-11-29T14:15:04.562Z,25.40
2018-11-29T14:18:02.058Z,25.40
2018-11-29T14:20:59.414Z,25.40
2018-11-29T14:23:57.102Z,25.40
2018-11-29T14:26:54.186Z,25.30
2018-11-29T14:29:52.327Z,25.30
2018-11-29T14:32:48.942Z,25.30
2018-11-29T14:35:49.224Z,25.30
2018-11-29T14:38:46.247Z,25.30
2018-11-29T14:41:43.738Z,25.30
2018-11-29T14:44:40.999Z,25.30
2018-11-29T14:47:38.462Z,25.30
2018-11-29T14:50:46.451Z,25.30
2018-11-29T14:53:45.087Z,25.20
2018-11-29T14:56:42.994Z,25.20
2018-11-29T14:59:40.427Z,25.20
2018-11-29T15:02:37.556Z,25.20
2018-11-29T15:05:37.105Z,25.20
2018-11-29T15:08:34.336Z,25.30
2018-11-29T15:11:32.167Z,25.30
2018-11-29T15:14:33.462Z,25.30
2018-11-29T15:17:28.193Z,25.30
2018-11-29T15:20:36.418Z,25.30
2018-11-29T15:23:34.765Z,25.30
2018-11-29T15:26:31.902Z,25.30
2018-11-29T15:29:29.088Z,25.20
2018-11-29T15:32:26.131Z,25.20
2018-11-29T15:35:24.650Z,25.20
2018-11-29T15:38:22.503Z,25.20
2018-11-29T15:41:19.885Z,25.20
2018-11-29T15:44:16.696Z,25.20
2018-11-29T15:47:14.680Z,25.10
2018-11-29T15:50:21.300Z,25.20
2018-11-29T15:53:18.165Z,25.10
2018-11-29T15:56:16.275Z,25.10
2018-11-29T15:59:14.255Z,25.10
2018-11-29T16:02:15.398Z,25.10
2018-11-29T16:05:09.732Z,25.00
2018-11-29T16:08:07.049Z,25.00
2018-11-29T16:11:04.609Z,25.00
2018-11-29T16:14:02.440Z,25.00
2018-11-29T16:17:00.054Z,25.00
2018-11-29T16:19:56.805Z,25.00
2018-11-29T16:22:54.715Z,24.90
2018-11-29T16:25:52.372Z,25.00
2018-11-29T16:28:50.218Z,24.90
2018-11-29T16:31:47.256Z,24.90
2018-11-29T16:34:45.019Z,24.90
2018-11-29T16:37:43.405Z,25.00
2018-11-29T16:40:41.354Z,25.00
2018-11-29T16:43:40.239Z,25.00
2018-11-29T16:46:38.718Z,25.00
2018-11-29T16:49:35.730Z,25.00
2018-11-29T16:52:32.827Z,25.00
2018-11-29T16:55:30.813Z,24.90
2018-11-29T16:58:36.944Z,24.90
2018-11-29T17:01:30.468Z,24.90
2018-11-29T17:04:27.745Z,24.90
2018-11-29T17:07:25.623Z,24.90
2018-11-29T17:10:27.037Z,24.90
2018-11-29T17:13:25.121Z,24.80
2018-11-29T17:16:22.610Z,24.80
2018-11-29T17:19:19.570Z,24.70
2018-11-29T17:22:16.911Z,24.70
2018-11-29T17:25:14.594Z,24.70
2018-11-29T17:28:15.810Z,24.70
2018-11-29T17:31:09.460Z,24.70
2018-11-29T17:34:09.079Z,24.70
2018-11-29T17:37:02.496Z,24.60
2018-11-29T17:39:58.531Z,24.60
2018-11-29T17:42:55.332Z,24.60
2018-11-29T17:45:51.625Z,24.60
2018-11-29T17:48:48.329Z,24.60
2018-11-29T17:51:44.257Z,24.60
2018-11-29T17:54:40.125Z,24.50
2018-11-29T17:57:36.469Z,24.50
2018-11-29T18:00:34.672Z,24.50
2018-11-29T18:03:30.861Z,24.50
2018-11-29T18:06:27.818Z,24.50
2018-11-29T18:09:24.673Z,24.50
2018-11-29T18:12:20.946Z,24.50
2018-11-29T18:15:25.673Z,24.50
2018-11-29T18:18:21.878Z,24.50
2018-11-29T18:21:18.330Z,24.50
2018-11-29T18:24:19.146Z,24.50
2018-11-29T18:27:17.017Z,24.50
2018-11-29T18:30:23.017Z,24.50
2018-11-29T18:33:19.674Z,24.40
2018-11-29T18:36:16.098Z,24.40
2018-11-29T18:39:14.641Z,24.40
2018-11-29T18:42:11.288Z,24.40
2018-11-29T18:45:08.600Z,24.30
2018-11-29T18:48:05.296Z,24.30
2018-11-29T18:51:01.756Z,24.30
2018-11-29T18:53:58.373Z,24.20
2018-11-29T18:56:54.814Z,24.20
2018-11-29T18:59:55.050Z,24.20
2018-11-29T19:02:48.302Z,24.20
2018-11-29T19:05:44.736Z,24.20
2018-11-29T19:08:42.568Z,24.20
2018-11-29T19:11:39.143Z,24.10
2018-11-29T19:14:35.261Z,24.10
2018-11-29T19:17:32.653Z,24.10
2018-11-29T19:20:29.373Z,24.10
2018-11-29T19:23:25.739Z,24.10
2018-11-29T19:26:21.949Z,24.10
2018-11-29T19:29:18.303Z,24.00
2018-11-29T19:32:15.379Z,24.00
2018-11-29T19:35:11.998Z,24.00
2018-11-29T19:38:08.059Z,24.00
2018-11-29T19:41:04.098Z,24.00
2018-11-29T19:44:00.490Z,24.10
2018-11-29T19:46:57.496Z,24.10
2018-11-29T19:49:54.596Z,24.10
2018-11-29T19:52:52.674Z,24.00
2018-11-29T19:55:49.782Z,24.00
2018-11-29T19:58:46.462Z,24.00
2018-11-29T20:01:42.914Z,24.00
2018-11-29T20:04:39.060Z,24.00
2018-11-29T20:07:35.929Z,23.90
2018-11-29T20:10:32.426Z,23.90
2018-11-29T20:13:28.923Z,23.90
2018-11-29T20:16:27.919Z,23.80
2018-11-29T20:19:24.458Z,23.80
2018-11-29T20:22:21.450Z,23.80
2018-11-29T20:25:21.697Z,23.80
2018-11-29T20:28:22.010Z,23.70
2018-11-29T20:31:15.390Z,23.70
2018-11-29T20:34:11.394Z,23.70
2018-11-29T20:37:08.220Z,23.70
2018-11-29T20:40:04.482Z,23.70
2018-11-29T20:43:05.085Z,23.70
2018-11-29T20:46:02.355Z,23.60
2018-11-29T20:48:59.352Z,23.60
2018-11-29T20:51:56.139Z,23.60
2018-11-29T20:54:53.121Z,23.60
2018-11-29T20:57:49.436Z,23.60
2018-11-29T21:00:46.429Z,23.60
2018-11-29T21:03:43.143Z,23.60
2018-11-29T21:06:42.704Z,23.60
2018-11-29T21:09:39.496Z,23.60
2018-11-29T21:12:36.343Z,23.60
2018-11-29T21:15:32.582Z,23.60
2018-11-29T21:18:29.009Z,23.60
2018-11-29T21:21:25.424Z,23.60
2018-11-29T21:24:21.496Z,23.60
2018-11-29T21:27:18.139Z,23.60
2018-11-29T21:30:21.537Z,23.50
2018-11-29T21:33:18.920Z,23.50
2018-11-29T21:36:15.279Z,23.50
2018-11-29T21:39:12.120Z,23.50
2018-11-29T21:42:08.622Z,23.40
2018-11-29T21:45:04.557Z,23.40
2018-11-29T21:48:03.009Z,23.40
2018-11-29T21:50:59.046Z,23.40
2018-11-29T21:53:55.842Z,23.40
2018-11-29T21:56:52.042Z,23.30
2018-11-29T21:59:48.037Z,23.40
2018-11-29T22:02:45.171Z,23.30
2018-11-29T22:05:41.729Z,23.30
2018-11-29T22:08:37.833Z,23.30
2018-11-29T22:11:34.202Z,23.30
2018-11-29T22:14:30.487Z,23.20
2018-11-29T22:17:27.130Z,23.20
2018-11-29T22:20:23.198Z,23.20
2018-11-29T22:23:19.745Z,23.20
2018-11-29T22:26:20.104Z,23.20
2018-11-29T22:29:20.540Z,23.20
2018-11-29T22:32:14.252Z,23.20
2018-11-29T22:35:10.752Z,23.20
2018-11-29T22:38:07.115Z,23.20
2018-11-29T22:41:03.351Z,23.20
2018-11-29T22:43:59.584Z,23.20
2018-11-29T22:46:56.196Z,23.20
2018-11-29T22:49:52.615Z,23.30
2018-11-29T22:52:48.596Z,23.30
2018-11-29T22:55:44.908Z,23.30
2018-11-29T22:58:41.282Z,23.30
2018-11-29T23:01:37.393Z,23.30
2018-11-29T23:04:33.739Z,23.30
2018-11-29T23:07:32.788Z,23.20
2018-11-29T23:10:32.610Z,23.30
2018-11-29T23:13:29.351Z,23.20
2018-11-29T23:16:25.578Z,23.20
2018-11-29T23:19:22.203Z,23.20
2018-11-29T23:22:18.674Z,23.20
2018-11-29T23:25:18.974Z,23.20
2018-11-29T23:28:15.533Z,23.20
2018-11-29T23:31:11.810Z,23.10
2018-11-29T23:34:08.645Z,23.10
2018-11-29T23:37:04.831Z,23.10
2018-11-29T23:40:01.055Z,23.00
2018-11-29T23:42:57.388Z,23.00
2018-11-29T23:45:53.889Z,23.00
2018-11-29T23:48:50.535Z,23.00
2018-11-29T23:51:50.440Z,22.90
2018-11-29T23:54:43.805Z,22.90
2018-11-29T23:57:40.427Z,22.90
